<?xml version="1.0" encoding="UTF-8" standalone="no" ?>
<gpx xmlns="http://www.topografix.com/GPX/1/1" xmlns:xsi="http://www.w3.org/2001/XMLSchema-instance" xsi:schemaLocation="http://www.topografix.com/GPX/1/1 http://www.topografix.com/GPX/1/1/gpx.xsd" version="1.1" creator="VisuGPX - https://www.visugpx.com">
  <metadata>
    <name>Chemin de Prat Primer et forÃªt de la CaÃ¼lla</name>
  </metadata>
  <trk>
    <name><![CDATA[Chemin de Prat Primer et forÃªt de la CaÃ¼lla]]></name>
    <extensions>
      <line xmlns="http://www.topografix.com/GPX/gpx_style/0/2">
        <color>ff0000</color>
        <opacity>1.0</opacity>
        <width>2.0</width>
      </line>
    </extensions>
    <trkseg>
      <trkpt lat="42.49847" lon="1.53048">
        <ele>1346</ele>
        <time>2018-08-27T10:59:15Z</time>
      </trkpt>
      <trkpt lat="42.49826" lon="1.53062">
        <ele>1353</ele>
        <time>2018-08-27T11:00:24Z</time>
      </trkpt>
      <trkpt lat="42.4981" lon="1.53084">
        <ele>1357</ele>
        <time>2018-08-27T11:01:01Z</time>
      </trkpt>
      <trkpt lat="42.49791" lon="1.53101">
        <ele>1362</ele>
        <time>2018-08-27T11:01:52Z</time>
      </trkpt>
      <trkpt lat="42.49777" lon="1.53125">
        <ele>1369</ele>
        <time>2018-08-27T11:02:37Z</time>
      </trkpt>
      <trkpt lat="42.49758" lon="1.53142">
        <ele>1377</ele>
        <time>2018-08-27T11:03:12Z</time>
      </trkpt>
      <trkpt lat="42.49765" lon="1.53172">
        <ele>1361</ele>
        <time>2018-08-27T11:04:54Z</time>
      </trkpt>
      <trkpt lat="42.49767" lon="1.53204">
        <ele>1401</ele>
        <time>2018-08-27T11:07:44Z</time>
      </trkpt>
      <trkpt lat="42.49776" lon="1.53232">
        <ele>1402</ele>
        <time>2018-08-27T11:08:20Z</time>
      </trkpt>
      <trkpt lat="42.49766" lon="1.5326">
        <ele>1404</ele>
        <time>2018-08-27T11:09:10Z</time>
      </trkpt>
      <trkpt lat="42.49758" lon="1.5329">
        <ele>1406</ele>
        <time>2018-08-27T11:09:36Z</time>
      </trkpt>
      <trkpt lat="42.49736" lon="1.53283">
        <ele>1421</ele>
        <time>2018-08-27T11:10:48Z</time>
      </trkpt>
      <trkpt lat="42.49714" lon="1.53289">
        <ele>1438</ele>
        <time>2018-08-27T11:11:54Z</time>
      </trkpt>
      <trkpt lat="42.49692" lon="1.53296">
        <ele>1451</ele>
        <time>2018-08-27T11:13:05Z</time>
      </trkpt>
      <trkpt lat="42.49682" lon="1.53324">
        <ele>1456</ele>
        <time>2018-08-27T11:13:45Z</time>
      </trkpt>
      <trkpt lat="42.49661" lon="1.53336">
        <ele>1466</ele>
        <time>2018-08-27T11:14:48Z</time>
      </trkpt>
      <trkpt lat="42.49639" lon="1.53335">
        <ele>1478</ele>
        <time>2018-08-27T11:15:51Z</time>
      </trkpt>
      <trkpt lat="42.49621" lon="1.53353">
        <ele>1487</ele>
        <time>2018-08-27T11:16:57Z</time>
      </trkpt>
      <trkpt lat="42.49605" lon="1.53375">
        <ele>1499</ele>
        <time>2018-08-27T11:17:50Z</time>
      </trkpt>
      <trkpt lat="42.49591" lon="1.534">
        <ele>1509</ele>
        <time>2018-08-27T11:18:17Z</time>
      </trkpt>
      <trkpt lat="42.49581" lon="1.53428">
        <ele>1512</ele>
        <time>2018-08-27T11:18:55Z</time>
      </trkpt>
      <trkpt lat="42.49568" lon="1.53453">
        <ele>1517</ele>
        <time>2018-08-27T11:19:38Z</time>
      </trkpt>
      <trkpt lat="42.49553" lon="1.53477">
        <ele>1521</ele>
        <time>2018-08-27T11:20:10Z</time>
      </trkpt>
      <trkpt lat="42.49532" lon="1.53491">
        <ele>1526</ele>
        <time>2018-08-27T11:21:03Z</time>
      </trkpt>
      <trkpt lat="42.49509" lon="1.53495">
        <ele>1535</ele>
        <time>2018-08-27T11:21:34Z</time>
      </trkpt>
      <trkpt lat="42.49492" lon="1.53517">
        <ele>1542</ele>
        <time>2018-08-27T11:22:06Z</time>
      </trkpt>
      <trkpt lat="42.49476" lon="1.53538">
        <ele>1547</ele>
        <time>2018-08-27T11:22:48Z</time>
      </trkpt>
      <trkpt lat="42.49456" lon="1.53555">
        <ele>1553</ele>
        <time>2018-08-27T11:23:20Z</time>
      </trkpt>
      <trkpt lat="42.49442" lon="1.53581">
        <ele>1562</ele>
        <time>2018-08-27T11:24:25Z</time>
      </trkpt>
      <trkpt lat="42.49446" lon="1.53611">
        <ele>1572</ele>
        <time>2018-08-27T11:24:50Z</time>
      </trkpt>
      <trkpt lat="42.49434" lon="1.53637">
        <ele>1576</ele>
        <time>2018-08-27T11:25:22Z</time>
      </trkpt>
      <trkpt lat="42.49411" lon="1.53638">
        <ele>1572</ele>
        <time>2018-08-27T11:26:51Z</time>
      </trkpt>
      <trkpt lat="42.49391" lon="1.53653">
        <ele>1583</ele>
        <time>2018-08-27T11:27:12Z</time>
      </trkpt>
      <trkpt lat="42.49376" lon="1.53676">
        <ele>1591</ele>
        <time>2018-08-27T11:27:35Z</time>
      </trkpt>
      <trkpt lat="42.49366" lon="1.53704">
        <ele>1597</ele>
        <time>2018-08-27T11:28:08Z</time>
      </trkpt>
      <trkpt lat="42.49351" lon="1.53728">
        <ele>1600</ele>
        <time>2018-08-27T11:28:50Z</time>
      </trkpt>
      <trkpt lat="42.49337" lon="1.53752">
        <ele>1604</ele>
        <time>2018-08-27T11:29:33Z</time>
      </trkpt>
      <trkpt lat="42.49326" lon="1.53779">
        <ele>1609</ele>
        <time>2018-08-27T11:30:35Z</time>
      </trkpt>
      <trkpt lat="42.49321" lon="1.5381">
        <ele>1616</ele>
        <time>2018-08-27T11:31:02Z</time>
      </trkpt>
      <trkpt lat="42.4931" lon="1.53838">
        <ele>1625</ele>
        <time>2018-08-27T11:31:22Z</time>
      </trkpt>
      <trkpt lat="42.49297" lon="1.53863">
        <ele>1628</ele>
        <time>2018-08-27T11:32:11Z</time>
      </trkpt>
      <trkpt lat="42.49287" lon="1.53892">
        <ele>1631</ele>
        <time>2018-08-27T11:32:39Z</time>
      </trkpt>
      <trkpt lat="42.49276" lon="1.53919">
        <ele>1634</ele>
        <time>2018-08-27T11:33:13Z</time>
      </trkpt>
      <trkpt lat="42.49258" lon="1.53939">
        <ele>1638</ele>
        <time>2018-08-27T11:33:56Z</time>
      </trkpt>
      <trkpt lat="42.49238" lon="1.53955">
        <ele>1646</ele>
        <time>2018-08-27T11:34:42Z</time>
      </trkpt>
      <trkpt lat="42.49228" lon="1.53982">
        <ele>1652</ele>
        <time>2018-08-27T11:36:12Z</time>
      </trkpt>
      <trkpt lat="42.49212" lon="1.54005">
        <ele>1660</ele>
        <time>2018-08-27T11:36:55Z</time>
      </trkpt>
      <trkpt lat="42.49192" lon="1.54021">
        <ele>1669</ele>
        <time>2018-08-27T11:37:30Z</time>
      </trkpt>
      <trkpt lat="42.49175" lon="1.5404">
        <ele>1674</ele>
        <time>2018-08-27T11:38:44Z</time>
      </trkpt>
      <trkpt lat="42.49158" lon="1.54062">
        <ele>1678</ele>
        <time>2018-08-27T11:39:14Z</time>
      </trkpt>
      <trkpt lat="42.4915" lon="1.5409">
        <ele>1680</ele>
        <time>2018-08-27T11:40:29Z</time>
      </trkpt>
      <trkpt lat="42.49138" lon="1.54116">
        <ele>1687</ele>
        <time>2018-08-27T11:41:07Z</time>
      </trkpt>
      <trkpt lat="42.4914" lon="1.54147">
        <ele>1692</ele>
        <time>2018-08-27T11:41:40Z</time>
      </trkpt>
      <trkpt lat="42.49138" lon="1.54178">
        <ele>1700</ele>
        <time>2018-08-27T11:42:15Z</time>
      </trkpt>
      <trkpt lat="42.4913" lon="1.54206">
        <ele>1706</ele>
        <time>2018-08-27T11:42:57Z</time>
      </trkpt>
      <trkpt lat="42.49115" lon="1.54229">
        <ele>1724</ele>
        <time>2018-08-27T11:43:47Z</time>
      </trkpt>
      <trkpt lat="42.49094" lon="1.54244">
        <ele>1733</ele>
        <time>2018-08-27T11:44:26Z</time>
      </trkpt>
      <trkpt lat="42.49078" lon="1.54264">
        <ele>1741</ele>
        <time>2018-08-27T11:45:16Z</time>
      </trkpt>
      <trkpt lat="42.49068" lon="1.54293">
        <ele>1749</ele>
        <time>2018-08-27T11:46:03Z</time>
      </trkpt>
      <trkpt lat="42.49052" lon="1.54314">
        <ele>1761</ele>
        <time>2018-08-27T11:46:58Z</time>
      </trkpt>
      <trkpt lat="42.49031" lon="1.54324">
        <ele>1757</ele>
        <time>2018-08-27T11:48:11Z</time>
      </trkpt>
      <trkpt lat="42.49018" lon="1.5435">
        <ele>1767</ele>
        <time>2018-08-27T11:49:04Z</time>
      </trkpt>
      <trkpt lat="42.49001" lon="1.54372">
        <ele>1777</ele>
        <time>2018-08-27T11:50:14Z</time>
      </trkpt>
      <trkpt lat="42.48979" lon="1.5438">
        <ele>1784</ele>
        <time>2018-08-27T11:50:49Z</time>
      </trkpt>
      <trkpt lat="42.4896" lon="1.54396">
        <ele>1793</ele>
        <time>2018-08-27T11:51:23Z</time>
      </trkpt>
      <trkpt lat="42.48941" lon="1.54414">
        <ele>1803</ele>
        <time>2018-08-27T11:52:07Z</time>
      </trkpt>
      <trkpt lat="42.4893" lon="1.5444">
        <ele>1807</ele>
        <time>2018-08-27T11:52:36Z</time>
      </trkpt>
      <trkpt lat="42.48918" lon="1.54466">
        <ele>1815</ele>
        <time>2018-08-27T11:53:38Z</time>
      </trkpt>
      <trkpt lat="42.48897" lon="1.54477">
        <ele>1823</ele>
        <time>2018-08-27T11:54:37Z</time>
      </trkpt>
      <trkpt lat="42.48875" lon="1.54489">
        <ele>1830</ele>
        <time>2018-08-27T11:55:26Z</time>
      </trkpt>
      <trkpt lat="42.48853" lon="1.54501">
        <ele>1835</ele>
        <time>2018-08-27T11:56:06Z</time>
      </trkpt>
      <trkpt lat="42.48831" lon="1.5451">
        <ele>1846</ele>
        <time>2018-08-27T11:56:58Z</time>
      </trkpt>
      <trkpt lat="42.48824" lon="1.54539">
        <ele>1854</ele>
        <time>2018-08-27T11:58:18Z</time>
      </trkpt>
      <trkpt lat="42.48789" lon="1.54561">
        <ele>1871</ele>
        <time>2018-08-27T12:02:42Z</time>
      </trkpt>
      <trkpt lat="42.48768" lon="1.54574">
        <ele>1876</ele>
        <time>2018-08-27T12:03:22Z</time>
      </trkpt>
      <trkpt lat="42.48751" lon="1.54594">
        <ele>1883</ele>
        <time>2018-08-27T12:04:03Z</time>
      </trkpt>
      <trkpt lat="42.48737" lon="1.54619">
        <ele>1893</ele>
        <time>2018-08-27T12:04:44Z</time>
      </trkpt>
      <trkpt lat="42.48714" lon="1.5462">
        <ele>1900</ele>
        <time>2018-08-27T12:05:20Z</time>
      </trkpt>
      <trkpt lat="42.48699" lon="1.54644">
        <ele>1909</ele>
        <time>2018-08-27T12:06:11Z</time>
      </trkpt>
      <trkpt lat="42.48678" lon="1.54658">
        <ele>1921</ele>
        <time>2018-08-27T12:06:52Z</time>
      </trkpt>
      <trkpt lat="42.48657" lon="1.54671">
        <ele>1935</ele>
        <time>2018-08-27T12:07:48Z</time>
      </trkpt>
      <trkpt lat="42.48636" lon="1.54682">
        <ele>1945</ele>
        <time>2018-08-27T12:08:41Z</time>
      </trkpt>
      <trkpt lat="42.48613" lon="1.54687">
        <ele>1955</ele>
        <time>2018-08-27T12:09:30Z</time>
      </trkpt>
      <trkpt lat="42.48594" lon="1.54703">
        <ele>1962</ele>
        <time>2018-08-27T12:10:18Z</time>
      </trkpt>
      <trkpt lat="42.48581" lon="1.54728">
        <ele>1967</ele>
        <time>2018-08-27T12:11:41Z</time>
      </trkpt>
      <trkpt lat="42.48571" lon="1.54756">
        <ele>1978</ele>
        <time>2018-08-27T12:13:23Z</time>
      </trkpt>
      <trkpt lat="42.4855" lon="1.54745">
        <ele>1981</ele>
        <time>2018-08-27T12:14:11Z</time>
      </trkpt>
      <trkpt lat="42.4853" lon="1.5476">
        <ele>1995</ele>
        <time>2018-08-27T12:14:59Z</time>
      </trkpt>
      <trkpt lat="42.48508" lon="1.54762">
        <ele>2001</ele>
        <time>2018-08-27T12:16:17Z</time>
      </trkpt>
      <trkpt lat="42.48494" lon="1.54738">
        <ele>2004</ele>
        <time>2018-08-27T12:17:51Z</time>
      </trkpt>
      <trkpt lat="42.48471" lon="1.5474">
        <ele>2015</ele>
        <time>2018-08-27T12:18:36Z</time>
      </trkpt>
      <trkpt lat="42.4845" lon="1.54751">
        <ele>2026</ele>
        <time>2018-08-27T12:19:28Z</time>
      </trkpt>
      <trkpt lat="42.48427" lon="1.54755">
        <ele>2047</ele>
        <time>2018-08-27T12:20:14Z</time>
      </trkpt>
      <trkpt lat="42.48404" lon="1.54755">
        <ele>2040</ele>
        <time>2018-08-27T12:22:03Z</time>
      </trkpt>
      <trkpt lat="42.48382" lon="1.54749">
        <ele>2045</ele>
        <time>2018-08-27T12:22:45Z</time>
      </trkpt>
      <trkpt lat="42.48364" lon="1.54729">
        <ele>2050</ele>
        <time>2018-08-27T12:23:21Z</time>
      </trkpt>
      <trkpt lat="42.48343" lon="1.54742">
        <ele>2054</ele>
        <time>2018-08-27T12:24:11Z</time>
      </trkpt>
      <trkpt lat="42.4832" lon="1.54746">
        <ele>2060</ele>
        <time>2018-08-27T12:24:35Z</time>
      </trkpt>
      <trkpt lat="42.483" lon="1.54761">
        <ele>2069</ele>
        <time>2018-08-27T12:25:17Z</time>
      </trkpt>
      <trkpt lat="42.48287" lon="1.54787">
        <ele>2077</ele>
        <time>2018-08-27T12:26:41Z</time>
      </trkpt>
      <trkpt lat="42.48271" lon="1.5481">
        <ele>2080</ele>
        <time>2018-08-27T12:27:15Z</time>
      </trkpt>
      <trkpt lat="42.4825" lon="1.5482">
        <ele>2089</ele>
        <time>2018-08-27T12:27:45Z</time>
      </trkpt>
      <trkpt lat="42.48231" lon="1.54838">
        <ele>2097</ele>
        <time>2018-08-27T12:28:17Z</time>
      </trkpt>
      <trkpt lat="42.48218" lon="1.54863">
        <ele>2101</ele>
        <time>2018-08-27T12:28:46Z</time>
      </trkpt>
      <trkpt lat="42.48204" lon="1.54886">
        <ele>2104</ele>
        <time>2018-08-27T12:29:29Z</time>
      </trkpt>
      <trkpt lat="42.48185" lon="1.54904">
        <ele>2108</ele>
        <time>2018-08-27T12:30:03Z</time>
      </trkpt>
      <trkpt lat="42.48163" lon="1.54909">
        <ele>2109</ele>
        <time>2018-08-27T12:31:45Z</time>
      </trkpt>
      <trkpt lat="42.4814" lon="1.5491">
        <ele>2115</ele>
        <time>2018-08-27T12:32:14Z</time>
      </trkpt>
      <trkpt lat="42.48117" lon="1.54911">
        <ele>2120</ele>
        <time>2018-08-27T12:33:03Z</time>
      </trkpt>
      <trkpt lat="42.48094" lon="1.54909">
        <ele>2130</ele>
        <time>2018-08-27T12:33:59Z</time>
      </trkpt>
      <trkpt lat="42.4808" lon="1.54933">
        <ele>2135</ele>
        <time>2018-08-27T12:35:11Z</time>
      </trkpt>
      <trkpt lat="42.48058" lon="1.54943">
        <ele>2141</ele>
        <time>2018-08-27T12:36:19Z</time>
      </trkpt>
      <trkpt lat="42.4807" lon="1.54969">
        <ele>2142</ele>
        <time>2018-08-27T12:37:06Z</time>
      </trkpt>
      <trkpt lat="42.48052" lon="1.54986">
        <ele>2150</ele>
        <time>2018-08-27T12:41:02Z</time>
      </trkpt>
      <trkpt lat="42.48046" lon="1.55016">
        <ele>2157</ele>
        <time>2018-08-27T12:41:43Z</time>
      </trkpt>
      <trkpt lat="42.48028" lon="1.55033">
        <ele>2171</ele>
        <time>2018-08-27T12:42:49Z</time>
      </trkpt>
      <trkpt lat="42.4801" lon="1.55053">
        <ele>2177</ele>
        <time>2018-08-27T12:43:54Z</time>
      </trkpt>
      <trkpt lat="42.47989" lon="1.55062">
        <ele>2182</ele>
        <time>2018-08-27T12:44:24Z</time>
      </trkpt>
      <trkpt lat="42.4797" lon="1.5508">
        <ele>2190</ele>
        <time>2018-08-27T12:45:10Z</time>
      </trkpt>
      <trkpt lat="42.47952" lon="1.55097">
        <ele>2200</ele>
        <time>2018-08-27T12:45:49Z</time>
      </trkpt>
      <trkpt lat="42.4793" lon="1.55106">
        <ele>2208</ele>
        <time>2018-08-27T12:46:38Z</time>
      </trkpt>
      <trkpt lat="42.47907" lon="1.55103">
        <ele>2213</ele>
        <time>2018-08-27T12:48:39Z</time>
      </trkpt>
      <trkpt lat="42.47884" lon="1.55104">
        <ele>2221</ele>
        <time>2018-08-27T12:49:26Z</time>
      </trkpt>
      <trkpt lat="42.47863" lon="1.55095">
        <ele>2226</ele>
        <time>2018-08-27T12:50:00Z</time>
      </trkpt>
      <trkpt lat="42.47845" lon="1.55075">
        <ele>2230</ele>
        <time>2018-08-27T12:50:34Z</time>
      </trkpt>
      <trkpt lat="42.47836" lon="1.55046">
        <ele>2231</ele>
        <time>2018-08-27T12:51:13Z</time>
      </trkpt>
      <trkpt lat="42.47855" lon="1.55028">
        <ele>2233</ele>
        <time>2018-08-27T12:52:15Z</time>
      </trkpt>
      <trkpt lat="42.47853" lon="1.55021">
        <ele>2234</ele>
        <time>2018-08-27T13:15:52Z</time>
      </trkpt>
      <trkpt lat="42.47839" lon="1.55004">
        <ele>2234</ele>
        <time>2018-08-27T13:29:47Z</time>
      </trkpt>
      <trkpt lat="42.47847" lon="1.54976">
        <ele>2231</ele>
        <time>2018-08-27T13:30:27Z</time>
      </trkpt>
      <trkpt lat="42.47858" lon="1.54948">
        <ele>2232</ele>
        <time>2018-08-27T13:30:47Z</time>
      </trkpt>
      <trkpt lat="42.47864" lon="1.54918">
        <ele>2233</ele>
        <time>2018-08-27T13:31:08Z</time>
      </trkpt>
      <trkpt lat="42.47876" lon="1.54891">
        <ele>2230</ele>
        <time>2018-08-27T13:31:33Z</time>
      </trkpt>
      <trkpt lat="42.47889" lon="1.54866">
        <ele>2221</ele>
        <time>2018-08-27T13:32:06Z</time>
      </trkpt>
      <trkpt lat="42.47905" lon="1.54844">
        <ele>2215</ele>
        <time>2018-08-27T13:32:43Z</time>
      </trkpt>
      <trkpt lat="42.47924" lon="1.54826">
        <ele>2212</ele>
        <time>2018-08-27T13:33:06Z</time>
      </trkpt>
      <trkpt lat="42.47943" lon="1.54811">
        <ele>2207</ele>
        <time>2018-08-27T13:33:29Z</time>
      </trkpt>
      <trkpt lat="42.47965" lon="1.54802">
        <ele>2202</ele>
        <time>2018-08-27T13:33:53Z</time>
      </trkpt>
      <trkpt lat="42.47985" lon="1.54787">
        <ele>2203</ele>
        <time>2018-08-27T13:34:17Z</time>
      </trkpt>
      <trkpt lat="42.48003" lon="1.54766">
        <ele>2200</ele>
        <time>2018-08-27T13:34:38Z</time>
      </trkpt>
      <trkpt lat="42.4802" lon="1.54743">
        <ele>2197</ele>
        <time>2018-08-27T13:34:58Z</time>
      </trkpt>
      <trkpt lat="42.48034" lon="1.54719">
        <ele>2198</ele>
        <time>2018-08-27T13:35:19Z</time>
      </trkpt>
      <trkpt lat="42.48051" lon="1.54698">
        <ele>2200</ele>
        <time>2018-08-27T13:35:51Z</time>
      </trkpt>
      <trkpt lat="42.48069" lon="1.54678">
        <ele>2196</ele>
        <time>2018-08-27T13:36:14Z</time>
      </trkpt>
      <trkpt lat="42.48081" lon="1.54653">
        <ele>2196</ele>
        <time>2018-08-27T13:36:34Z</time>
      </trkpt>
      <trkpt lat="42.48099" lon="1.54633">
        <ele>2199</ele>
        <time>2018-08-27T13:36:56Z</time>
      </trkpt>
      <trkpt lat="42.48117" lon="1.54615">
        <ele>2197</ele>
        <time>2018-08-27T13:37:18Z</time>
      </trkpt>
      <trkpt lat="42.48138" lon="1.546">
        <ele>2199</ele>
        <time>2018-08-27T13:37:40Z</time>
      </trkpt>
      <trkpt lat="42.48158" lon="1.54585">
        <ele>2203</ele>
        <time>2018-08-27T13:38:12Z</time>
      </trkpt>
      <trkpt lat="42.48175" lon="1.54565">
        <ele>2206</ele>
        <time>2018-08-27T13:38:34Z</time>
      </trkpt>
      <trkpt lat="42.48193" lon="1.54544">
        <ele>2209</ele>
        <time>2018-08-27T13:38:56Z</time>
      </trkpt>
      <trkpt lat="42.48212" lon="1.54527">
        <ele>2209</ele>
        <time>2018-08-27T13:39:18Z</time>
      </trkpt>
      <trkpt lat="42.48233" lon="1.54514">
        <ele>2204</ele>
        <time>2018-08-27T13:39:42Z</time>
      </trkpt>
      <trkpt lat="42.48243" lon="1.54487">
        <ele>2201</ele>
        <time>2018-08-27T13:40:13Z</time>
      </trkpt>
      <trkpt lat="42.48256" lon="1.54461">
        <ele>2197</ele>
        <time>2018-08-27T13:40:53Z</time>
      </trkpt>
      <trkpt lat="42.48272" lon="1.54439">
        <ele>2191</ele>
        <time>2018-08-27T13:41:17Z</time>
      </trkpt>
      <trkpt lat="42.48293" lon="1.54424">
        <ele>2187</ele>
        <time>2018-08-27T13:41:38Z</time>
      </trkpt>
      <trkpt lat="42.48311" lon="1.54402">
        <ele>2200</ele>
        <time>2018-08-27T13:42:03Z</time>
      </trkpt>
      <trkpt lat="42.48332" lon="1.54393">
        <ele>2200</ele>
        <time>2018-08-27T13:42:25Z</time>
      </trkpt>
      <trkpt lat="42.48355" lon="1.54391">
        <ele>2201</ele>
        <time>2018-08-27T13:42:44Z</time>
      </trkpt>
      <trkpt lat="42.48373" lon="1.54371">
        <ele>2200</ele>
        <time>2018-08-27T13:43:11Z</time>
      </trkpt>
      <trkpt lat="42.48378" lon="1.54341">
        <ele>2199</ele>
        <time>2018-08-27T13:43:37Z</time>
      </trkpt>
      <trkpt lat="42.48385" lon="1.54311">
        <ele>2199</ele>
        <time>2018-08-27T13:43:58Z</time>
      </trkpt>
      <trkpt lat="42.48396" lon="1.54282">
        <ele>2199</ele>
        <time>2018-08-27T13:44:19Z</time>
      </trkpt>
      <trkpt lat="42.48403" lon="1.54252">
        <ele>2196</ele>
        <time>2018-08-27T13:44:36Z</time>
      </trkpt>
      <trkpt lat="42.48401" lon="1.54222">
        <ele>2196</ele>
        <time>2018-08-27T13:44:56Z</time>
      </trkpt>
      <trkpt lat="42.48389" lon="1.54194">
        <ele>2197</ele>
        <time>2018-08-27T13:45:14Z</time>
      </trkpt>
      <trkpt lat="42.48376" lon="1.54167">
        <ele>2193</ele>
        <time>2018-08-27T13:45:38Z</time>
      </trkpt>
      <trkpt lat="42.48365" lon="1.5414">
        <ele>2188</ele>
        <time>2018-08-27T13:46:09Z</time>
      </trkpt>
      <trkpt lat="42.48354" lon="1.54113">
        <ele>2186</ele>
        <time>2018-08-27T13:46:35Z</time>
      </trkpt>
      <trkpt lat="42.48342" lon="1.54086">
        <ele>2186</ele>
        <time>2018-08-27T13:46:54Z</time>
      </trkpt>
      <trkpt lat="42.48327" lon="1.54062">
        <ele>2183</ele>
        <time>2018-08-27T13:47:18Z</time>
      </trkpt>
      <trkpt lat="42.48327" lon="1.54031">
        <ele>2183</ele>
        <time>2018-08-27T13:47:45Z</time>
      </trkpt>
      <trkpt lat="42.48321" lon="1.54001">
        <ele>2181</ele>
        <time>2018-08-27T13:48:06Z</time>
      </trkpt>
      <trkpt lat="42.4831" lon="1.53974">
        <ele>2176</ele>
        <time>2018-08-27T13:48:38Z</time>
      </trkpt>
      <trkpt lat="42.48315" lon="1.53942">
        <ele>2176</ele>
        <time>2018-08-27T13:49:00Z</time>
      </trkpt>
      <trkpt lat="42.4831" lon="1.53912">
        <ele>2174</ele>
        <time>2018-08-27T13:49:25Z</time>
      </trkpt>
      <trkpt lat="42.48307" lon="1.53881">
        <ele>2171</ele>
        <time>2018-08-27T13:49:53Z</time>
      </trkpt>
      <trkpt lat="42.48293" lon="1.53856">
        <ele>2171</ele>
        <time>2018-08-27T13:50:26Z</time>
      </trkpt>
      <trkpt lat="42.48287" lon="1.53826">
        <ele>2164</ele>
        <time>2018-08-27T13:50:59Z</time>
      </trkpt>
      <trkpt lat="42.48284" lon="1.53796">
        <ele>2163</ele>
        <time>2018-08-27T13:51:22Z</time>
      </trkpt>
      <trkpt lat="42.48281" lon="1.53765">
        <ele>2162</ele>
        <time>2018-08-27T13:51:41Z</time>
      </trkpt>
      <trkpt lat="42.48276" lon="1.53733">
        <ele>2160</ele>
        <time>2018-08-27T13:52:05Z</time>
      </trkpt>
      <trkpt lat="42.48279" lon="1.53703">
        <ele>2161</ele>
        <time>2018-08-27T13:52:27Z</time>
      </trkpt>
      <trkpt lat="42.48286" lon="1.53674">
        <ele>2165</ele>
        <time>2018-08-27T13:52:52Z</time>
      </trkpt>
      <trkpt lat="42.48299" lon="1.53648">
        <ele>2160</ele>
        <time>2018-08-27T13:53:57Z</time>
      </trkpt>
      <trkpt lat="42.48303" lon="1.53619">
        <ele>2162</ele>
        <time>2018-08-27T13:54:48Z</time>
      </trkpt>
      <trkpt lat="42.48306" lon="1.53588">
        <ele>2163</ele>
        <time>2018-08-27T13:55:06Z</time>
      </trkpt>
      <trkpt lat="42.48305" lon="1.53557">
        <ele>2163</ele>
        <time>2018-08-27T13:55:25Z</time>
      </trkpt>
      <trkpt lat="42.48301" lon="1.53526">
        <ele>2166</ele>
        <time>2018-08-27T13:55:45Z</time>
      </trkpt>
      <trkpt lat="42.48295" lon="1.53496">
        <ele>2161</ele>
        <time>2018-08-27T13:56:04Z</time>
      </trkpt>
      <trkpt lat="42.4829" lon="1.53465">
        <ele>2163</ele>
        <time>2018-08-27T13:56:24Z</time>
      </trkpt>
      <trkpt lat="42.48283" lon="1.53436">
        <ele>2160</ele>
        <time>2018-08-27T13:56:42Z</time>
      </trkpt>
      <trkpt lat="42.48271" lon="1.5341">
        <ele>2156</ele>
        <time>2018-08-27T13:57:04Z</time>
      </trkpt>
      <trkpt lat="42.48251" lon="1.53393">
        <ele>2156</ele>
        <time>2018-08-27T13:57:21Z</time>
      </trkpt>
      <trkpt lat="42.4823" lon="1.53379">
        <ele>2155</ele>
        <time>2018-08-27T13:57:40Z</time>
      </trkpt>
      <trkpt lat="42.4821" lon="1.53365">
        <ele>2153</ele>
        <time>2018-08-27T13:57:59Z</time>
      </trkpt>
      <trkpt lat="42.48188" lon="1.53355">
        <ele>2153</ele>
        <time>2018-08-27T13:58:17Z</time>
      </trkpt>
      <trkpt lat="42.48166" lon="1.53345">
        <ele>2152</ele>
        <time>2018-08-27T13:58:37Z</time>
      </trkpt>
      <trkpt lat="42.48144" lon="1.53334">
        <ele>2150</ele>
        <time>2018-08-27T13:58:57Z</time>
      </trkpt>
      <trkpt lat="42.48124" lon="1.53317">
        <ele>2149</ele>
        <time>2018-08-27T13:59:14Z</time>
      </trkpt>
      <trkpt lat="42.48106" lon="1.53297">
        <ele>2148</ele>
        <time>2018-08-27T13:59:33Z</time>
      </trkpt>
      <trkpt lat="42.48094" lon="1.53271">
        <ele>2146</ele>
        <time>2018-08-27T13:59:51Z</time>
      </trkpt>
      <trkpt lat="42.4808" lon="1.53247">
        <ele>2149</ele>
        <time>2018-08-27T14:00:52Z</time>
      </trkpt>
      <trkpt lat="42.48102" lon="1.53241">
        <ele>2139</ele>
        <time>2018-08-27T14:03:52Z</time>
      </trkpt>
      <trkpt lat="42.48123" lon="1.53228">
        <ele>2130</ele>
        <time>2018-08-27T14:04:20Z</time>
      </trkpt>
      <trkpt lat="42.48142" lon="1.53245">
        <ele>2125</ele>
        <time>2018-08-27T14:06:54Z</time>
      </trkpt>
      <trkpt lat="42.48163" lon="1.53256">
        <ele>2119</ele>
        <time>2018-08-27T14:07:27Z</time>
      </trkpt>
      <trkpt lat="42.48186" lon="1.53256">
        <ele>2111</ele>
        <time>2018-08-27T14:08:16Z</time>
      </trkpt>
      <trkpt lat="42.48209" lon="1.53246">
        <ele>2102</ele>
        <time>2018-08-27T14:09:21Z</time>
      </trkpt>
      <trkpt lat="42.48219" lon="1.53218">
        <ele>2086</ele>
        <time>2018-08-27T14:10:43Z</time>
      </trkpt>
      <trkpt lat="42.48241" lon="1.53213">
        <ele>2077</ele>
        <time>2018-08-27T14:11:31Z</time>
      </trkpt>
      <trkpt lat="42.48263" lon="1.53203">
        <ele>2066</ele>
        <time>2018-08-27T14:12:11Z</time>
      </trkpt>
      <trkpt lat="42.48283" lon="1.5319">
        <ele>2056</ele>
        <time>2018-08-27T14:13:14Z</time>
      </trkpt>
      <trkpt lat="42.48298" lon="1.53166">
        <ele>2045</ele>
        <time>2018-08-27T14:14:23Z</time>
      </trkpt>
      <trkpt lat="42.48298" lon="1.53135">
        <ele>2030</ele>
        <time>2018-08-27T14:15:36Z</time>
      </trkpt>
      <trkpt lat="42.48317" lon="1.53118">
        <ele>2029</ele>
        <time>2018-08-27T14:17:01Z</time>
      </trkpt>
      <trkpt lat="42.48329" lon="1.53092">
        <ele>2004</ele>
        <time>2018-08-27T14:18:54Z</time>
      </trkpt>
      <trkpt lat="42.48345" lon="1.53069">
        <ele>1993</ele>
        <time>2018-08-27T14:20:04Z</time>
      </trkpt>
      <trkpt lat="42.48367" lon="1.5308">
        <ele>1992</ele>
        <time>2018-08-27T14:21:45Z</time>
      </trkpt>
      <trkpt lat="42.4839" lon="1.53089">
        <ele>1996</ele>
        <time>2018-08-27T14:22:22Z</time>
      </trkpt>
      <trkpt lat="42.48412" lon="1.53098">
        <ele>1995</ele>
        <time>2018-08-27T14:22:44Z</time>
      </trkpt>
      <trkpt lat="42.48428" lon="1.5312">
        <ele>1997</ele>
        <time>2018-08-27T14:23:09Z</time>
      </trkpt>
      <trkpt lat="42.48441" lon="1.53149">
        <ele>1998</ele>
        <time>2018-08-27T14:23:34Z</time>
      </trkpt>
      <trkpt lat="42.48456" lon="1.53171">
        <ele>1997</ele>
        <time>2018-08-27T14:23:59Z</time>
      </trkpt>
      <trkpt lat="42.48476" lon="1.53185">
        <ele>1995</ele>
        <time>2018-08-27T14:24:30Z</time>
      </trkpt>
      <trkpt lat="42.48498" lon="1.53178">
        <ele>1982</ele>
        <time>2018-08-27T14:26:57Z</time>
      </trkpt>
      <trkpt lat="42.48519" lon="1.53189">
        <ele>1981</ele>
        <time>2018-08-27T14:29:47Z</time>
      </trkpt>
      <trkpt lat="42.48541" lon="1.532">
        <ele>1976</ele>
        <time>2018-08-27T14:30:07Z</time>
      </trkpt>
      <trkpt lat="42.4856" lon="1.53216">
        <ele>1974</ele>
        <time>2018-08-27T14:30:29Z</time>
      </trkpt>
      <trkpt lat="42.4858" lon="1.53229">
        <ele>1969</ele>
        <time>2018-08-27T14:30:53Z</time>
      </trkpt>
      <trkpt lat="42.48598" lon="1.53253">
        <ele>1969</ele>
        <time>2018-08-27T14:31:14Z</time>
      </trkpt>
      <trkpt lat="42.48621" lon="1.53257">
        <ele>1961</ele>
        <time>2018-08-27T14:31:37Z</time>
      </trkpt>
      <trkpt lat="42.48642" lon="1.53269">
        <ele>1951</ele>
        <time>2018-08-27T14:32:00Z</time>
      </trkpt>
      <trkpt lat="42.48639" lon="1.53301">
        <ele>1950</ele>
        <time>2018-08-27T14:32:31Z</time>
      </trkpt>
      <trkpt lat="42.48658" lon="1.53319">
        <ele>1944</ele>
        <time>2018-08-27T14:33:13Z</time>
      </trkpt>
      <trkpt lat="42.4868" lon="1.53311">
        <ele>1923</ele>
        <time>2018-08-27T14:34:22Z</time>
      </trkpt>
      <trkpt lat="42.48699" lon="1.53328">
        <ele>1908</ele>
        <time>2018-08-27T14:35:51Z</time>
      </trkpt>
      <trkpt lat="42.48717" lon="1.53308">
        <ele>1903</ele>
        <time>2018-08-27T14:38:02Z</time>
      </trkpt>
      <trkpt lat="42.4874" lon="1.53306">
        <ele>1894</ele>
        <time>2018-08-27T14:39:10Z</time>
      </trkpt>
      <trkpt lat="42.48762" lon="1.53302">
        <ele>1872</ele>
        <time>2018-08-27T14:40:23Z</time>
      </trkpt>
      <trkpt lat="42.48784" lon="1.53292">
        <ele>1857</ele>
        <time>2018-08-27T14:41:39Z</time>
      </trkpt>
      <trkpt lat="42.48803" lon="1.53274">
        <ele>1846</ele>
        <time>2018-08-27T14:43:36Z</time>
      </trkpt>
      <trkpt lat="42.48823" lon="1.5326">
        <ele>1833</ele>
        <time>2018-08-27T14:44:31Z</time>
      </trkpt>
      <trkpt lat="42.48846" lon="1.53254">
        <ele>1819</ele>
        <time>2018-08-27T14:46:36Z</time>
      </trkpt>
      <trkpt lat="42.48868" lon="1.53259">
        <ele>1807</ele>
        <time>2018-08-27T14:47:18Z</time>
      </trkpt>
      <trkpt lat="42.48886" lon="1.5324">
        <ele>1798</ele>
        <time>2018-08-27T14:48:05Z</time>
      </trkpt>
      <trkpt lat="42.48901" lon="1.53216">
        <ele>1794</ele>
        <time>2018-08-27T14:48:43Z</time>
      </trkpt>
      <trkpt lat="42.48922" lon="1.53204">
        <ele>1795</ele>
        <time>2018-08-27T14:49:26Z</time>
      </trkpt>
      <trkpt lat="42.48944" lon="1.53204">
        <ele>1786</ele>
        <time>2018-08-27T14:49:56Z</time>
      </trkpt>
      <trkpt lat="42.48965" lon="1.53218">
        <ele>1769</ele>
        <time>2018-08-27T14:50:36Z</time>
      </trkpt>
      <trkpt lat="42.48986" lon="1.53227">
        <ele>1755</ele>
        <time>2018-08-27T14:51:33Z</time>
      </trkpt>
      <trkpt lat="42.49008" lon="1.53219">
        <ele>1746</ele>
        <time>2018-08-27T14:52:12Z</time>
      </trkpt>
      <trkpt lat="42.49009" lon="1.5325">
        <ele>1738</ele>
        <time>2018-08-27T14:53:06Z</time>
      </trkpt>
      <trkpt lat="42.49011" lon="1.53281">
        <ele>1739</ele>
        <time>2018-08-27T14:53:37Z</time>
      </trkpt>
      <trkpt lat="42.49014" lon="1.53313">
        <ele>1722</ele>
        <time>2018-08-27T14:54:38Z</time>
      </trkpt>
      <trkpt lat="42.49018" lon="1.53345">
        <ele>1722</ele>
        <time>2018-08-27T14:54:56Z</time>
      </trkpt>
      <trkpt lat="42.49022" lon="1.53377">
        <ele>1701</ele>
        <time>2018-08-27T14:56:28Z</time>
      </trkpt>
      <trkpt lat="42.49034" lon="1.53403">
        <ele>1699</ele>
        <time>2018-08-27T14:57:21Z</time>
      </trkpt>
      <trkpt lat="42.49054" lon="1.53418">
        <ele>1699</ele>
        <time>2018-08-27T14:57:39Z</time>
      </trkpt>
      <trkpt lat="42.49077" lon="1.53411">
        <ele>1700</ele>
        <time>2018-08-27T14:57:55Z</time>
      </trkpt>
      <trkpt lat="42.491" lon="1.53404">
        <ele>1699</ele>
        <time>2018-08-27T14:58:17Z</time>
      </trkpt>
      <trkpt lat="42.49122" lon="1.53403">
        <ele>1702</ele>
        <time>2018-08-27T14:58:38Z</time>
      </trkpt>
      <trkpt lat="42.49146" lon="1.53404">
        <ele>1703</ele>
        <time>2018-08-27T14:59:05Z</time>
      </trkpt>
      <trkpt lat="42.49167" lon="1.53414">
        <ele>1702</ele>
        <time>2018-08-27T14:59:32Z</time>
      </trkpt>
      <trkpt lat="42.49179" lon="1.53441">
        <ele>1710</ele>
        <time>2018-08-27T14:59:50Z</time>
      </trkpt>
      <trkpt lat="42.49195" lon="1.53462">
        <ele>1704</ele>
        <time>2018-08-27T15:00:15Z</time>
      </trkpt>
      <trkpt lat="42.49213" lon="1.53482">
        <ele>1695</ele>
        <time>2018-08-27T15:01:30Z</time>
      </trkpt>
      <trkpt lat="42.4922" lon="1.53511">
        <ele>1689</ele>
        <time>2018-08-27T15:02:51Z</time>
      </trkpt>
      <trkpt lat="42.49221" lon="1.53543">
        <ele>1684</ele>
        <time>2018-08-27T15:03:43Z</time>
      </trkpt>
      <trkpt lat="42.49231" lon="1.53571">
        <ele>1677</ele>
        <time>2018-08-27T15:04:14Z</time>
      </trkpt>
      <trkpt lat="42.49248" lon="1.53591">
        <ele>1664</ele>
        <time>2018-08-27T15:04:49Z</time>
      </trkpt>
      <trkpt lat="42.4926" lon="1.53618">
        <ele>1655</ele>
        <time>2018-08-27T15:05:17Z</time>
      </trkpt>
      <trkpt lat="42.49267" lon="1.53648">
        <ele>1650</ele>
        <time>2018-08-27T15:05:55Z</time>
      </trkpt>
      <trkpt lat="42.49279" lon="1.53674">
        <ele>1640</ele>
        <time>2018-08-27T15:06:38Z</time>
      </trkpt>
      <trkpt lat="42.49291" lon="1.537">
        <ele>1633</ele>
        <time>2018-08-27T15:08:00Z</time>
      </trkpt>
      <trkpt lat="42.49311" lon="1.53714">
        <ele>1619</ele>
        <time>2018-08-27T15:08:55Z</time>
      </trkpt>
      <trkpt lat="42.49318" lon="1.53744">
        <ele>1613</ele>
        <time>2018-08-27T15:09:45Z</time>
      </trkpt>
      <trkpt lat="42.49323" lon="1.53775">
        <ele>1611</ele>
        <time>2018-08-27T15:10:11Z</time>
      </trkpt>
      <trkpt lat="42.49331" lon="1.53745">
        <ele>1607</ele>
        <time>2018-08-27T15:12:38Z</time>
      </trkpt>
      <trkpt lat="42.4935" lon="1.5373">
        <ele>1601</ele>
        <time>2018-08-27T15:13:07Z</time>
      </trkpt>
      <trkpt lat="42.49366" lon="1.53708">
        <ele>1597</ele>
        <time>2018-08-27T15:13:28Z</time>
      </trkpt>
      <trkpt lat="42.49379" lon="1.53683">
        <ele>1592</ele>
        <time>2018-08-27T15:13:55Z</time>
      </trkpt>
      <trkpt lat="42.49396" lon="1.5366">
        <ele>1582</ele>
        <time>2018-08-27T15:14:19Z</time>
      </trkpt>
      <trkpt lat="42.49417" lon="1.5365">
        <ele>1573</ele>
        <time>2018-08-27T15:14:46Z</time>
      </trkpt>
      <trkpt lat="42.49434" lon="1.53629">
        <ele>1566</ele>
        <time>2018-08-27T15:15:19Z</time>
      </trkpt>
      <trkpt lat="42.49443" lon="1.53601">
        <ele>1563</ele>
        <time>2018-08-27T15:15:40Z</time>
      </trkpt>
      <trkpt lat="42.4946" lon="1.53581">
        <ele>1555</ele>
        <time>2018-08-27T15:16:30Z</time>
      </trkpt>
      <trkpt lat="42.49471" lon="1.53554">
        <ele>1549</ele>
        <time>2018-08-27T15:17:32Z</time>
      </trkpt>
      <trkpt lat="42.49494" lon="1.53544">
        <ele>1539</ele>
        <time>2018-08-27T15:18:24Z</time>
      </trkpt>
      <trkpt lat="42.49519" lon="1.53509">
        <ele>1532</ele>
        <time>2018-08-27T15:19:16Z</time>
      </trkpt>
      <trkpt lat="42.49542" lon="1.53505">
        <ele>1520</ele>
        <time>2018-08-27T15:19:45Z</time>
      </trkpt>
      <trkpt lat="42.49559" lon="1.53484">
        <ele>1517</ele>
        <time>2018-08-27T15:20:12Z</time>
      </trkpt>
      <trkpt lat="42.49572" lon="1.53458">
        <ele>1524</ele>
        <time>2018-08-27T15:20:38Z</time>
      </trkpt>
      <trkpt lat="42.49584" lon="1.53431">
        <ele>1516</ele>
        <time>2018-08-27T15:21:20Z</time>
      </trkpt>
      <trkpt lat="42.49596" lon="1.53404">
        <ele>1514</ele>
        <time>2018-08-27T15:21:48Z</time>
      </trkpt>
      <trkpt lat="42.49605" lon="1.53376">
        <ele>1500</ele>
        <time>2018-08-27T15:22:20Z</time>
      </trkpt>
      <trkpt lat="42.49626" lon="1.53364">
        <ele>1486</ele>
        <time>2018-08-27T15:23:31Z</time>
      </trkpt>
      <trkpt lat="42.49644" lon="1.53345">
        <ele>1473</ele>
        <time>2018-08-27T15:25:35Z</time>
      </trkpt>
      <trkpt lat="42.49663" lon="1.53327">
        <ele>1462</ele>
        <time>2018-08-27T15:27:01Z</time>
      </trkpt>
      <trkpt lat="42.49683" lon="1.53315">
        <ele>1451</ele>
        <time>2018-08-27T15:28:31Z</time>
      </trkpt>
      <trkpt lat="42.49707" lon="1.53318">
        <ele>1448</ele>
        <time>2018-08-27T15:29:36Z</time>
      </trkpt>
      <trkpt lat="42.49719" lon="1.53292">
        <ele>1439</ele>
        <time>2018-08-27T15:30:19Z</time>
      </trkpt>
      <trkpt lat="42.49741" lon="1.53287">
        <ele>1418</ele>
        <time>2018-08-27T15:31:56Z</time>
      </trkpt>
      <trkpt lat="42.49764" lon="1.53288">
        <ele>1410</ele>
        <time>2018-08-27T15:32:48Z</time>
      </trkpt>
      <trkpt lat="42.49776" lon="1.53261">
        <ele>1407</ele>
        <time>2018-08-27T15:33:09Z</time>
      </trkpt>
      <trkpt lat="42.49782" lon="1.5323">
        <ele>1403</ele>
        <time>2018-08-27T15:33:30Z</time>
      </trkpt>
      <trkpt lat="42.49773" lon="1.53201">
        <ele>1394</ele>
        <time>2018-08-27T15:33:50Z</time>
      </trkpt>
      <trkpt lat="42.49755" lon="1.53181">
        <ele>1378</ele>
        <time>2018-08-27T15:35:10Z</time>
      </trkpt>
      <trkpt lat="42.49773" lon="1.53161">
        <ele>1377</ele>
        <time>2018-08-27T15:35:49Z</time>
      </trkpt>
      <trkpt lat="42.49777" lon="1.53131">
        <ele>1371</ele>
        <time>2018-08-27T15:37:42Z</time>
      </trkpt>
      <trkpt lat="42.4979" lon="1.53106">
        <ele>1362</ele>
        <time>2018-08-27T15:38:20Z</time>
      </trkpt>
      <trkpt lat="42.49808" lon="1.53088">
        <ele>1357</ele>
        <time>2018-08-27T15:39:09Z</time>
      </trkpt>
      <trkpt lat="42.49829" lon="1.53072">
        <ele>1352</ele>
        <time>2018-08-27T15:39:44Z</time>
      </trkpt>
      <trkpt lat="42.49847" lon="1.53053">
        <ele>1347</ele>
        <time>2018-08-27T15:40:29Z</time>
      </trkpt>
    </trkseg>
  </trk>
</gpx>